Time;durP1;ratioP1;P1;durP2;ratioP2;P2;SDS_P1;SDS_P2;PMS_P1;PMS_P2;Temp;Humidity;BMP_temperature;BMP_pressure;BME280_temperature;BME280_humidity;BME280_pressure;Samples;Min_cycle;Max_cycle;Signal;HPM_P1;HPM_P2
2022/12/03 00:01:30;;;;;;;10.03;8.03;;;;;;;29.40;50.62;100761.69;5079734;27;69309;-35
2022/12/03 00:04:02;;;;;;;9.30;8.45;;;;;;;29.44;50.57;100770.16;5080606;27;67223;-33
2022/12/03 00:06:34;;;;;;;9.45;8.32;;;;;;;29.47;50.83;100780.56;5084509;27;69888;-33
2022/12/03 00:09:06;;;;;;;9.20;8.18;;;;;;;29.48;51.17;100774.13;5086835;27;65693;-33
2022/12/03 00:11:37;;;;;;;9.00;8.03;;;;;;;29.52;51.26;100781.56;5082092;27;69778;-34
2022/12/03 00:14:09;;;;;;;11.07;8.70;;;;;;;29.55;51.71;100780.31;5084063;27;66769;-33
2022/12/03 00:16:41;;;;;;;8.97;8.07;;;;;;;29.59;51.72;100789.69;5081817;27;70150;-33
2022/12/03 00:19:12;;;;;;;14.53;9.13;;;;;;;29.60;52.30;100794.03;5083127;27;66433;-36
2022/12/03 00:21:43;;;;;;;14.60;9.23;;;;;;;29.46;52.08;100777.03;5081055;27;69210;-33
2022/12/03 00:24:15;;;;;;;16.35;10.38;;;;;;;29.62;54.36;100797.34;5081925;27;66177;-36
2022/12/03 00:26:46;;;;;;;71.87;23.90;;;;;;;29.73;56.80;100804.81;5080369;27;69479;-33
2022/12/03 00:29:18;;;;;;;63.55;20.50;;;;;;;29.74;57.28;100806.47;5083720;27;65374;-35
2022/12/03 00:31:49;;;;;;;62.90;20.50;;;;;;;29.69;58.20;100794.66;5081247;27;69024;-35
2022/12/03 00:34:21;;;;;;;54.97;20.63;;;;;;;29.78;59.06;100799.59;5087169;27;66129;-34
2022/12/03 00:36:52;;;;;;;64.93;21.20;;;;;;;29.76;59.67;100796.28;4983084;27;2702449;-37
2022/12/03 00:39:24;;;;;;;58.30;20.70;;;;;;;29.84;60.14;100801.44;5091257;27;66472;-33
2022/12/03 00:41:55;;;;;;;44.17;18.23;;;;;;;29.85;60.84;100794.16;5082313;27;69124;-34
2022/12/03 00:44:27;;;;;;;49.17;18.50;;;;;;;29.95;60.90;100807.19;5093174;27;66274;-34
2022/12/03 00:46:58;;;;;;;39.60;19.37;;;;;;;29.89;61.83;100803.47;5087517;27;69376;-34
2022/12/03 00:49:30;;;;;;;;;;;;;;;29.62;65.50;100810.88;5084689;27;66983;-33
2022/12/03 00:52:01;;;;;;;33.20;17.95;;;;;;;29.89;61.81;100792.66;5080293;27;70539;-35
2022/12/03 00:54:33;;;;;;;30.52;16.75;;;;;;;30.01;62.18;100811.78;5084952;27;66951;-35
2022/12/03 00:57:04;;;;;;;30.40;15.93;;;;;;;30.05;61.48;100804.88;5081013;27;70134;-34
2022/12/03 00:59:36;;;;;;;29.33;16.73;;;;;;;30.03;62.20;100805.09;5084438;27;66330;-35
2022/12/03 01:02:07;;;;;;;22.27;15.63;;;;;;;30.09;62.08;100811.53;5089385;27;69843;-34
2022/12/03 01:04:39;;;;;;;28.95;16.10;;;;;;;30.03;61.76;100797.00;5079877;27;66608;-35
2022/12/03 01:07:12;;;;;;;25.88;15.93;;;;;;;30.07;62.31;100808.19;5081599;27;69919;-34
2022/12/03 01:09:43;;;;;;;26.05;15.80;;;;;;;30.06;62.92;100809.22;5083416;27;65549;-33
2022/12/03 01:12:15;;;;;;;34.67;17.60;;;;;;;30.04;65.92;100800.53;5081558;27;70022;-32
2022/12/03 01:14:46;;;;;;;31.57;17.50;;;;;;;30.04;65.99;100817.56;5081502;27;65956;-35
2022/12/03 01:17:18;;;;;;;19.45;15.18;;;;;;;30.12;63.16;100830.03;5081772;27;70843;-34
2022/12/03 01:19:51;;;;;;;16.73;13.63;;;;;;;30.09;62.94;100819.63;5083390;27;66612;-34
2022/12/03 01:22:22;;;;;;;21.00;13.45;;;;;;;30.09;62.74;100816.06;5082031;27;70049;-34
2022/12/03 01:24:54;;;;;;;21.65;13.80;;;;;;;30.14;62.77;100825.19;5085545;27;66496;-34
2022/12/03 01:27:25;;;;;;;18.50;12.77;;;;;;;29.87;63.28;100789.38;5078200;27;69884;-35
2022/12/03 01:29:57;;;;;;;;;;;;;;;29.88;65.03;100833.47;5082701;27;66476;-34
2022/12/03 01:32:28;;;;;;;17.05;12.65;;;;;;;30.19;62.79;100833.50;5082010;27;69945;-37
2022/12/03 01:34:59;;;;;;;15.50;12.70;;;;;;;30.24;62.75;100835.59;5079527;27;64836;-35
2022/12/03 01:37:31;;;;;;;19.35;12.85;;;;;;;30.27;62.50;100836.00;5085229;27;70067;-34
2022/12/03 01:40:03;;;;;;;16.60;12.20;;;;;;;30.30;62.63;100852.84;5085213;27;66443;-35
2022/12/03 01:42:39;;;;;;;17.75;12.35;;;;;;;29.97;62.40;100786.19;5084351;27;70620;-34
2022/12/03 01:45:20;;;;;;;16.48;12.60;;;;;;;29.96;62.32;100773.72;5085445;27;66160;-34
2022/12/03 01:47:51;;;;;;;19.67;12.45;;;;;;;30.37;62.92;100845.50;5081595;27;70027;-35
2022/12/03 01:50:33;;;;;;;17.87;12.37;;;;;;;29.88;63.26;100773.97;5089591;27;65407;-36
2022/12/03 01:53:04;;;;;;;;;;;;;;;30.05;65.10;100862.50;5087653;27;69499;-34
2022/12/03 01:55:36;;;;;;;15.25;11.25;;;;;;;30.39;62.81;100857.75;5085362;27;65938;-35
2022/12/03 01:58:11;;;;;;;14.80;11.00;;;;;;;30.02;62.62;100786.38;5084448;27;70369;-35
2022/12/03 02:00:43;;;;;;;14.48;11.65;;;;;;;30.45;62.64;100859.63;5091873;27;65693;-35
2022/12/03 02:03:23;;;;;;;11.67;10.47;;;;;;;30.48;63.11;100883.53;5098143;27;70199;-34
2022/12/03 02:05:55;;;;;;;11.35;10.35;;;;;;;30.48;62.89;100850.25;5084002;27;66642;-35
2022/12/03 02:08:34;;;;;;;11.60;10.60;;;;;;;30.53;62.63;100863.09;5085244;27;70133;-34
2022/12/03 02:11:14;;;;;;;11.00;9.85;;;;;;;30.54;63.04;100852.06;5089023;27;66054;-35
2022/12/03 02:13:47;;;;;;;12.02;10.05;;;;;;;30.20;62.57;100791.88;5086904;27;70168;-34
2022/12/03 02:16:19;;;;;;;11.75;9.77;;;;;;;30.47;62.97;100848.56;5083004;27;66638;-36
2022/12/03 02:18:50;;;;;;;19.40;11.32;;;;;;;30.36;65.72;100820.31;5085195;27;68865;-34
2022/12/03 02:21:55;;;;;;;19.98;12.13;;;;;;;30.55;65.89;100856.41;5085946;27;65312;-34
2022/12/03 02:24:46;;;;;;;14.07;11.07;;;;;;;30.56;66.40;100852.66;5088738;27;70509;-37
2022/12/03 02:27:17;;;;;;;17.58;11.02;;;;;;;30.52;66.24;100856.88;5084175;27;66599;-34
2022/12/03 02:29:49;;;;;;;;;;;;;;;30.25;67.46;100862.41;5097722;27;70276;-36
2022/12/03 02:32:22;;;;;;;18.35;11.73;;;;;;;30.49;66.76;100876.25;5086317;27;66531;-34
2022/12/03 02:34:53;;;;;;;16.45;11.73;;;;;;;30.53;66.66;100866.63;5083968;27;69653;-35
2022/12/03 02:37:35;;;;;;;14.48;10.90;;;;;;;29.97;66.77;100778.06;5091324;27;66242;-35
2022/12/03 02:40:11;;;;;;;15.23;10.88;;;;;;;30.53;66.43;100861.22;5089565;27;70552;-35
2022/12/03 02:42:44;;;;;;;16.65;10.93;;;;;;;30.43;66.87;100825.69;5084239;27;66210;-34
2022/12/03 02:45:18;;;;;;;14.10;10.88;;;;;;;30.08;66.46;100774.69;5085243;27;69747;-37
2022/12/03 02:48:12;;;;;;;14.95;10.82;;;;;;;30.44;66.82;100843.59;5081802;27;65437;-35
2022/12/03 02:50:50;;;;;;;14.80;10.80;;;;;;;30.05;66.67;100762.41;5085680;27;70357;-34
2022/12/03 02:53:44;;;;;;;13.07;10.25;;;;;;;30.51;66.77;100844.38;5083003;27;66412;-43
2022/12/03 02:56:23;;;;;;;18.15;11.18;;;;;;;30.64;66.75;100843.44;5075204;27;70429;-36
2022/12/03 02:58:59;;;;;;;21.20;10.90;;;;;;;30.66;66.73;100860.31;5096972;27;65699;-34
2022/12/03 03:01:31;;;;;;;26.58;11.73;;;;;;;30.66;66.70;100846.78;5086277;27;69430;-35
2022/12/03 03:04:03;;;;;;;;;;;;;;;30.46;67.28;100836.91;5084694;27;66701;-34
2022/12/03 03:06:34;;;;;;;18.05;11.02;;;;;;;30.69;66.61;100851.75;5081079;27;70657;-35
2022/12/03 03:09:06;;;;;;;14.90;10.18;;;;;;;30.72;65.80;100854.84;5088403;27;67069;-35
2022/12/03 03:11:37;;;;;;;13.82;10.05;;;;;;;30.73;66.14;100851.09;5089196;27;70201;-35
2022/12/03 03:14:08;;;;;;;18.88;10.07;;;;;;;30.76;65.55;100849.81;5080934;27;66484;-38
2022/12/03 03:16:41;;;;;;;23.90;11.15;;;;;;;30.77;65.64;100842.53;5083263;27;70176;-34
2022/12/03 03:19:12;;;;;;;24.42;10.65;;;;;;;30.82;65.45;100840.03;5085977;27;66318;-34
2022/12/03 03:21:44;;;;;;;18.20;9.73;;;;;;;30.83;65.45;100836.25;5085384;27;69996;-35
2022/12/03 03:24:15;;;;;;;17.25;9.27;;;;;;;30.86;65.25;100833.09;5079843;27;66939;-35
2022/12/03 03:26:49;;;;;;;23.65;9.35;;;;;;;30.89;65.22;100824.53;5084401;27;69350;-33
2022/12/03 03:29:21;;;;;;;23.38;10.35;;;;;;;30.79;65.06;100805.22;5086443;27;64477;-35
2022/12/03 03:31:52;;;;;;;15.43;9.55;;;;;;;30.89;64.98;100821.81;5088213;27;70005;-37
2022/12/03 03:34:26;;;;;;;18.38;9.27;;;;;;;30.89;65.47;100811.00;5087709;27;65164;-37
2022/12/03 03:36:57;;;;;;;25.75;10.38;;;;;;;30.90;65.23;100804.53;5087567;27;70426;-35
2022/12/03 03:39:29;;;;;;;19.80;9.68;;;;;;;30.88;65.46;100807.47;5084259;27;65522;-36
2022/12/03 03:42:04;;;;;;;16.50;9.27;;;;;;;30.90;65.36;100804.53;5087290;27;70729;-35
2022/12/03 03:44:36;;;;;;;23.40;9.82;;;;;;;30.94;65.24;100805.72;5084399;27;65399;-35
2022/12/03 03:47:07;;;;;;;26.00;9.63;;;;;;;30.94;65.63;100809.25;5084961;27;68991;-35
2022/12/03 03:49:39;;;;;;;24.63;9.32;;;;;;;30.97;65.73;100799.88;5083584;27;66478;-36
2022/12/03 03:52:10;;;;;;;;;;;;;;;30.76;66.37;100803.78;5084000;27;70636;-36
2022/12/03 03:54:42;;;;;;;16.63;8.60;;;;;;;30.88;65.91;100780.38;5081811;27;66571;-35
2022/12/03 03:57:14;;;;;;;37.05;7.70;;;;;;;31.04;63.25;100789.81;5087965;27;69403;-35
2022/12/03 03:59:46;;;;;;;16.02;7.45;;;;;;;30.99;62.04;100784.22;5087634;27;66119;-34
2022/12/03 04:02:23;;;;;;;18.02;6.85;;;;;;;30.96;60.77;100775.72;5082461;27;69965;-35
2022/12/03 04:04:55;;;;;;;9.25;6.22;;;;;;;31.14;60.30;100778.44;5090685;27;66298;-35
2022/12/03 04:07:27;;;;;;;24.67;6.57;;;;;;;30.71;60.50;100706.97;5088800;27;69842;-34
2022/12/03 04:09:58;;;;;;;;;;;;;;;31.00;60.67;100766.91;5084399;27;66315;-34
2022/12/03 04:15:18;;;;;;;33.58;7.03;;;;;;;31.14;61.29;100756.78;5083356;27;66847;-35
2022/12/03 04:20:42;;;;;;;22.15;6.40;;;;;;;31.17;62.08;100759.88;5081074;27;66376;-35
2022/12/03 04:23:14;;;;;;;17.95;7.07;;;;;;;31.24;62.13;100761.69;5081179;27;70006;-36
2022/12/03 04:28:50;;;;;;;12.75;6.45;;;;;;;31.22;62.31;100750.22;5088254;27;69557;-36
2022/12/03 04:37:00;;;;;;;10.32;5.05;;;;;;;31.13;62.60;100725.31;5080271;27;66475;-35
2022/12/03 04:39:32;;;;;;;12.02;5.57;;;;;;;31.07;62.55;100718.91;5091070;27;70250;-39
2022/12/03 04:42:04;;;;;;;10.65;4.65;;;;;;;31.21;62.68;100741.28;5081388;27;66400;-34
2022/12/03 04:44:37;;;;;;;18.88;4.82;;;;;;;31.24;62.29;100746.25;5086569;27;69398;-34
2022/12/03 04:47:21;;;;;;;9.13;4.78;;;;;;;31.27;62.67;100742.25;5081579;27;65705;-35
2022/12/03 04:49:52;;;;;;;8.35;4.28;;;;;;;31.34;62.27;100734.84;5083408;27;69664;-36
2022/12/03 04:52:23;;;;;;;4.50;3.85;;;;;;;31.40;62.43;100728.59;5089547;27;65149;-34
2022/12/03 04:54:56;;;;;;;9.57;4.80;;;;;;;31.43;62.23;100721.88;5089266;27;70336;-35
2022/12/03 04:57:27;;;;;;;7.50;4.28;;;;;;;31.46;62.24;100716.81;5083629;27;65450;-34
2022/12/03 04:59:58;;;;;;;5.95;4.22;;;;;;;31.56;61.64;100722.50;5083191;27;69727;-34
2022/12/03 05:02:31;;;;;;;10.02;4.32;;;;;;;31.64;62.01;100709.69;5082369;27;66435;-37
2022/12/03 05:05:02;;;;;;;14.43;5.22;;;;;;;31.63;61.85;100694.50;5087836;27;69241;-35
2022/12/03 05:07:34;;;;;;;4.90;3.88;;;;;;;31.68;61.91;100681.06;5085812;27;64926;-37
2022/12/03 05:10:07;;;;;;;7.90;4.53;;;;;;;31.76;61.51;100699.72;5086120;27;69606;-35
2022/12/03 05:12:37;;;;;;;;;;;;;;;31.49;62.19;100705.53;5089982;27;66954;-35
2022/12/03 05:15:09;;;;;;;8.25;3.90;;;;;;;31.80;61.49;100684.66;5089060;27;69803;-33
2022/12/03 05:17:40;;;;;;;;;;;;;;;31.53;62.60;100682.31;5070473;27;65587;-36
2022/12/03 05:23:01;;;;;;;5.50;4.10;;;;;;;31.80;61.66;100642.06;5084316;27;66740;-36
2022/12/03 05:25:33;;;;;;;5.13;3.83;;;;;;;31.94;61.28;100663.59;5085419;27;69694;-38
2022/12/03 05:28:06;;;;;;;8.75;4.53;;;;;;;31.65;61.51;100611.00;5085850;27;65852;-39
2022/12/03 05:30:37;;;;;;;11.07;4.28;;;;;;;31.85;61.39;100638.69;5090464;27;69443;-37
2022/12/03 05:33:09;;;;;;;6.72;4.28;;;;;;;32.01;61.30;100646.16;5089542;27;66119;-40
2022/12/03 05:35:41;;;;;;;10.63;4.13;;;;;;;32.03;61.35;100643.22;5086573;27;69861;-37
2022/12/03 05:38:12;;;;;;;5.70;3.42;;;;;;;31.97;61.18;100619.72;5083546;27;66764;-36
2022/12/03 05:40:44;;;;;;;4.18;3.75;;;;;;;32.03;61.37;100616.06;5085056;27;69962;-38
2022/12/03 05:43:15;;;;;;;5.10;3.78;;;;;;;32.09;61.19;100614.31;5084042;27;65319;-35
2022/12/03 05:45:46;;;;;;;9.00;3.95;;;;;;;32.06;61.14;100599.31;5084259;27;69990;-37
2022/12/03 05:48:19;;;;;;;9.07;3.55;;;;;;;32.07;60.65;100603.72;5083064;27;66941;-37
2022/12/03 05:50:51;;;;;;;10.93;3.55;;;;;;;32.02;60.90;100603.59;5088190;27;70901;-36
2022/12/03 05:53:22;;;;;;;16.52;3.90;;;;;;;31.97;61.62;100595.31;5083896;27;65131;-34
2022/12/03 05:55:53;;;;;;;12.52;3.45;;;;;;;31.84;59.91;100588.19;5082838;27;69842;-35
2022/12/03 05:58:25;;;;;;;12.68;3.28;;;;;;;31.72;59.07;100580.03;5069089;27;65959;-37
2022/12/03 06:00:56;;;;;;;6.03;3.00;;;;;;;31.63;58.42;100572.50;5085677;27;70183;-35
2022/12/03 06:03:27;;;;;;;10.45;3.25;;;;;;;31.54;57.78;100572.00;5083905;27;66210;-37
2022/12/03 06:05:59;;;;;;;6.82;2.80;;;;;;;31.43;56.44;100557.34;5083640;27;69480;-37
2022/12/03 06:08:30;;;;;;;7.13;2.85;;;;;;;31.38;56.08;100547.19;5092451;27;65569;-36
2022/12/03 06:11:01;;;;;;;4.10;2.40;;;;;;;31.24;55.76;100523.22;5084330;27;69991;-36
2022/12/03 06:13:33;;;;;;;7.63;2.47;;;;;;;31.27;55.15;100547.13;5082622;27;66964;-35
2022/12/03 06:16:05;;;;;;;4.47;2.33;;;;;;;31.13;54.45;100522.94;5084307;27;69880;-36
2022/12/03 06:18:37;;;;;;;2.42;2.20;;;;;;;31.18;53.48;100530.38;5087875;27;66664;-36
2022/12/03 06:21:08;;;;;;;3.80;2.00;;;;;;;31.07;53.07;100509.50;5083902;27;69923;-38
2022/12/03 06:23:43;;;;;;;3.85;2.53;;;;;;;31.05;52.98;100519.72;5082823;27;66572;-36
2022/12/03 06:26:14;;;;;;;2.70;2.30;;;;;;;31.09;52.47;100519.06;5081250;27;70228;-37
2022/12/03 06:28:48;;;;;;;6.43;1.90;;;;;;;31.07;51.54;100523.88;5084807;27;66636;-33
2022/12/03 06:31:19;;;;;;;10.38;2.55;;;;;;;31.06;52.00;100519.47;5091266;27;71790;-33
2022/12/03 06:33:50;;;;;;;3.60;2.50;;;;;;;31.04;51.59;100518.09;5083354;27;65392;-35
2022/12/03 06:36:22;;;;;;;2.33;1.80;;;;;;;30.96;51.07;100500.28;5088655;27;69383;-37
2022/12/03 06:38:56;;;;;;;2.72;1.88;;;;;;;31.03;50.67;100508.28;5083933;27;65061;-35
2022/12/03 06:41:27;;;;;;;2.45;1.63;;;;;;;30.63;50.81;100441.94;5095271;27;70034;-34
2022/12/03 06:43:59;;;;;;;2.97;1.80;;;;;;;30.96;50.65;100500.28;5090556;27;66076;-34
2022/12/03 06:46:31;;;;;;;2.28;1.73;;;;;;;30.97;50.02;100496.50;5091131;27;69409;-35
2022/12/03 06:49:03;;;;;;;9.02;2.00;;;;;;;30.81;49.54;100472.75;5091735;27;66137;-33
2022/12/03 06:51:34;;;;;;;;;;;;;;;30.69;50.08;100500.59;5090052;27;69602;-36
2022/12/03 06:54:06;;;;;;;4.93;1.45;;;;;;;30.91;49.26;100492.00;5093673;27;65127;-35
2022/12/03 06:56:38;;;;;;;3.03;2.00;;;;;;;30.89;48.56;100494.09;5090744;27;69970;-35
2022/12/03 06:59:14;;;;;;;3.17;1.98;;;;;;;30.91;48.40;100492.00;5081349;27;66164;-36
2022/12/03 07:01:46;;;;;;;3.08;1.60;;;;;;;30.91;48.24;100473.06;5082394;27;70054;-37
2022/12/03 07:04:17;;;;;;;3.30;1.58;;;;;;;30.78;47.84;100476.72;5090753;27;65561;-34
2022/12/03 07:06:48;;;;;;;1.90;1.58;;;;;;;30.80;47.83;100463.00;5092038;27;69161;-37
2022/12/03 07:09:20;;;;;;;6.22;1.92;;;;;;;30.87;47.43;100477.25;5090997;27;65241;-34
2022/12/03 07:11:51;;;;;;;;;;;;;;;30.65;48.34;100466.09;5081782;27;71174;-38
2022/12/03 07:14:22;;;;;;;3.20;1.70;;;;;;;30.80;47.72;100463.81;5083511;27;66858;-35
2022/12/03 07:16:54;;;;;;;;;;;;;;;30.66;47.44;100479.38;5080838;27;69390;-36
2022/12/03 07:19:25;;;;;;;2.65;1.23;;;;;;;30.86;47.20;100473.72;5084237;27;65454;-36
2022/12/03 07:22:02;;;;;;;4.53;1.83;;;;;;;30.70;46.95;100448.09;5084485;27;69347;-35
2022/12/03 07:24:34;;;;;;;2.08;1.40;;;;;;;30.87;47.08;100474.53;5084872;27;66595;-35
2022/12/03 07:27:05;;;;;;;5.20;1.15;;;;;;;30.83;47.04;100473.38;5082270;27;70527;-35
2022/12/03 07:29:37;;;;;;;2.35;1.23;;;;;;;30.84;46.68;100477.72;5088046;27;66000;-35
2022/12/03 07:32:08;;;;;;;1.85;1.50;;;;;;;30.84;46.04;100458.75;5092009;27;71231;-36
2022/12/03 07:34:40;;;;;;;2.70;1.10;;;;;;;30.81;46.00;100461.94;5088546;27;67038;-36
2022/12/03 07:37:12;;;;;;;2.78;1.15;;;;;;;30.84;46.05;100453.34;5083611;27;69626;-34
2022/12/03 07:39:51;;;;;;;1.77;0.90;;;;;;;30.85;45.67;100449.59;5078294;27;65721;-35
2022/12/03 07:42:22;;;;;;;2.47;1.33;;;;;;;30.79;45.80;100443.19;5081078;27;69828;-34
2022/12/03 07:44:54;;;;;;;2.33;1.30;;;;;;;30.82;46.10;100444.66;5079230;27;66013;-36
2022/12/03 07:47:25;;;;;;;2.97;1.50;;;;;;;30.74;45.42;100421.41;5081791;27;70059;-34
2022/12/03 07:49:57;;;;;;;4.00;1.38;;;;;;;30.77;45.42;100422.81;5080830;27;66721;-35
2022/12/03 07:52:28;;;;;;;3.23;1.43;;;;;;;30.84;45.44;100437.09;5079316;27;69491;-33
2022/12/03 07:54:59;;;;;;;4.83;1.30;;;;;;;30.83;45.66;100430.03;5081532;27;65848;-36
2022/12/03 07:57:31;;;;;;;;;;;;;;;30.72;53.03;100440.56;5082958;27;69755;-37
2022/12/03 08:00:04;;;;;;;24.98;3.90;;;;;;;31.02;55.57;100428.09;5085796;27;65780;-38
2022/12/03 08:02:36;;;;;;;26.67;3.75;;;;;;;31.19;56.92;100439.09;5074495;27;69358;-34
2022/12/03 08:05:08;;;;;;;35.45;3.60;;;;;;;31.26;58.60;100447.91;5083294;27;66933;-35
2022/12/03 08:07:39;;;;;;;26.85;5.43;;;;;;;31.43;58.84;100457.06;5087098;27;69443;-36
2022/12/03 08:10:11;;;;;;;48.90;5.20;;;;;;;31.51;58.95;100462.13;5081707;27;66804;-36
2022/12/03 08:12:43;;;;;;;47.35;5.25;;;;;;;31.56;59.23;100464.94;5084928;27;69916;-36
2022/12/03 08:15:23;;;;;;;22.77;4.30;;;;;;;31.64;59.31;100474.63;5082600;27;65920;-36
2022/12/03 08:17:57;;;;;;;33.08;4.03;;;;;;;31.32;59.07;100412.59;5090237;27;70186;-35
2022/12/03 08:20:37;;;;;;;27.92;4.28;;;;;;;31.64;59.43;100457.53;5085740;27;66248;-34
2022/12/03 08:23:19;;;;;;;19.38;4.15;;;;;;;31.71;59.42;100471.81;5087640;27;70370;-35
2022/12/03 08:25:52;;;;;;;29.73;5.65;;;;;;;31.73;59.44;100456.97;5091708;27;65739;-36
2022/12/03 08:28:26;;;;;;;28.45;7.03;;;;;;;31.87;60.08;100479.22;5079965;27;70140;-38
2022/12/03 08:31:11;;;;;;;25.55;6.65;;;;;;;31.71;60.22;100436.56;5078070;27;67086;-38
2022/12/03 08:33:43;;;;;;;36.08;6.07;;;;;;;31.77;61.15;100457.31;5083503;27;69592;-39
2022/12/03 08:36:28;;;;;;;29.35;5.15;;;;;;;31.81;61.37;100461.19;5083819;27;65797;-36
2022/12/03 08:39:17;;;;;;;34.03;5.38;;;;;;;31.53;61.80;100403.06;5083549;27;69399;-35
2022/12/03 08:45:38;;;;;;;17.40;5.93;;;;;;;31.79;61.72;100466.03;5082196;27;69928;-35
2022/12/03 08:48:19;;;;;;;34.67;5.78;;;;;;;32.00;61.40;100470.03;5081840;27;66266;-37
2022/12/03 08:50:55;;;;;;;26.13;5.55;;;;;;;31.99;62.51;100455.66;5052765;27;70204;-36
2022/12/03 08:53:32;;;;;;;20.25;5.82;;;;;;;32.01;62.33;100467.09;5058325;27;66534;-35
2022/12/03 08:56:20;;;;;;;19.60;4.85;;;;;;;31.93;61.51;100448.47;5043725;27;69374;-36
2022/12/03 08:58:57;;;;;;;18.60;5.15;;;;;;;31.99;62.84;100450.25;5087618;27;66386;-37
2022/12/03 09:01:31;;;;;;;22.05;6.22;;;;;;;31.65;63.22;100394.09;5064951;27;69997;-37
2022/12/03 09:04:37;;;;;;;24.73;5.28;;;;;;;31.94;63.06;100474.53;5068940;27;65176;-36
2022/12/03 09:07:10;;;;;;;20.85;5.22;;;;;;;32.01;63.63;100487.97;5086125;27;69759;-34
2022/12/03 09:09:40;;;;;;;;;;;;;;;31.80;64.60;100511.06;5072107;27;65279;-34
2022/12/03 09:12:12;;;;;;;12.15;4.88;;;;;;;32.01;64.21;100570.19;5085051;27;69011;-34
2022/12/03 09:14:44;;;;;;;32.53;5.80;;;;;;;31.96;63.92;100564.66;5061158;27;64546;-35
2022/12/03 09:17:17;;;;;;;34.13;7.03;;;;;;;31.89;64.05;100568.50;5068104;27;70564;-34
2022/12/03 09:19:49;;;;;;;28.98;6.25;;;;;;;31.96;64.23;100585.53;5077971;27;66248;-35
2022/12/03 09:22:20;;;;;;;;;;;;;;;31.74;65.40;100593.38;5073058;27;70942;-38
2022/12/03 09:24:52;;;;;;;28.98;6.03;;;;;;;31.88;66.05;100591.28;5070991;27;66680;-38
2022/12/03 09:27:24;;;;;;;28.23;4.28;;;;;;;31.72;66.55;100580.03;5082496;27;69744;-40
2022/12/03 09:29:56;;;;;;;27.77;3.72;;;;;;;31.56;67.46;100576.09;5090726;27;67091;-38
2022/12/03 09:32:28;;;;;;;26.67;2.95;;;;;;;31.47;67.17;100568.56;5084277;27;70691;-36
2022/12/03 09:34:59;;;;;;;15.63;3.58;;;;;;;31.39;68.18;100553.44;5085058;27;65729;-34
2022/12/03 09:37:40;;;;;;;58.42;5.82;;;;;;;31.63;66.90;100564.34;5057417;27;69017;-38
2022/12/03 09:40:12;;;;;;;79.53;6.03;;;;;;;31.60;69.71;100561.03;5080784;27;66360;-37
2022/12/03 09:42:44;;;;;;;36.33;5.07;;;;;;;31.47;69.96;100558.53;5053984;27;70053;-42
2022/12/03 09:45:17;;;;;;;25.42;3.80;;;;;;;31.52;69.70;100580.34;5066970;27;67126;-40
2022/12/03 09:47:49;;;;;;;10.60;3.95;;;;;;;31.53;69.85;100592.84;5075194;27;68440;-37
2022/12/03 09:50:25;;;;;;;23.67;5.07;;;;;;;31.55;70.30;100598.84;5076123;27;66553;-37
2022/12/03 09:53:01;;;;;;;22.40;4.10;;;;;;;31.57;70.10;100610.31;5071351;27;69243;-36
2022/12/03 09:55:33;;;;;;;27.00;5.28;;;;;;;31.51;70.17;100602.25;5088558;27;66888;-38
2022/12/03 09:58:13;;;;;;;19.35;3.97;;;;;;;31.55;69.99;100617.84;5049535;27;69724;-40
2022/12/03 10:00:51;;;;;;;33.47;5.72;;;;;;;31.09;69.62;100532.59;5093524;27;66268;-38
2022/12/03 10:03:26;;;;;;;27.15;5.15;;;;;;;31.55;69.53;100593.44;5068119;27;69329;-40
2022/12/03 10:05:59;;;;;;;26.17;5.18;;;;;;;31.58;69.34;100597.56;5062402;27;65846;-38
2022/12/03 10:08:31;;;;;;;19.10;4.60;;;;;;;31.54;69.23;100604.53;5073491;27;70266;-39
2022/12/03 10:11:03;;;;;;;20.52;4.97;;;;;;;31.55;69.17;100615.13;5066990;27;65124;-38
2022/12/03 10:13:36;;;;;;;;;;;;;;;31.36;69.93;100624.38;5068637;27;69818;-39
2022/12/03 10:16:17;;;;;;;20.02;3.72;;;;;;;31.54;69.50;100643.31;5104016;27;66428;-38
2022/12/03 10:18:55;;;;;;;4.28;3.28;;;;;;;31.57;68.87;100663.72;5071261;27;69984;-37
2022/12/03 10:21:31;;;;;;;7.75;3.70;;;;;;;31.12;69.43;100596.31;5075484;27;65012;-36
2022/12/03 10:24:17;;;;;;;5.20;3.30;;;;;;;31.50;69.17;100680.06;5095276;27;70204;-36
2022/12/03 10:26:51;;;;;;;7.85;3.13;;;;;;;31.53;68.44;100679.59;5092290;27;66389;-36
2022/12/03 10:29:26;;;;;;;12.82;4.30;;;;;;;31.54;68.95;100691.28;5085462;27;69944;-38
2022/12/03 10:32:06;;;;;;;9.18;4.70;;;;;;;31.54;68.86;100697.53;5080953;27;65772;-37
2022/12/03 10:34:40;;;;;;;9.40;4.60;;;;;;;31.51;69.28;100698.00;5084049;27;70104;-38
2022/12/03 10:37:19;;;;;;;6.07;4.97;;;;;;;31.54;69.54;100702.13;5070433;27;66472;-36
2022/12/03 10:39:59;;;;;;;11.27;4.95;;;;;;;31.51;69.32;100714.25;5068987;27;69668;-37
2022/12/03 10:42:33;;;;;;;9.05;3.97;;;;;;;31.50;69.01;100709.88;5073601;27;66905;-39
2022/12/03 10:45:16;;;;;;;10.65;3.95;;;;;;;30.99;69.21;100635.25;5060883;27;69726;-36
2022/12/03 10:48:03;;;;;;;14.82;4.60;;;;;;;31.45;69.71;100711.63;5081672;27;65815;-40
2022/12/03 10:50:36;;;;;;;9.68;4.63;;;;;;;31.48;69.03;100709.28;5050532;27;69502;-38
2022/12/03 10:53:09;;;;;;;7.90;3.90;;;;;;;31.50;69.37;100728.03;5082733;27;66458;-37
2022/12/03 10:55:43;;;;;;;5.93;4.82;;;;;;;31.47;69.10;100723.88;5068005;27;69810;-37
2022/12/03 10:58:20;;;;;;;5.32;4.82;;;;;;;31.48;68.73;100733.69;5077448;27;65945;-35
2022/12/03 11:00:54;;;;;;;5.82;5.43;;;;;;;31.19;68.59;100688.34;5083034;27;69210;-38
2022/12/03 11:03:28;;;;;;;6.50;5.38;;;;;;;31.49;68.22;100732.63;5070287;27;65925;-40
2022/12/03 11:06:01;;;;;;;5.57;5.07;;;;;;;31.37;68.16;100723.59;5079651;27;70356;-39
2022/12/03 11:08:36;;;;;;;6.78;5.45;;;;;;;31.45;68.66;100736.84;5082572;27;66676;-39
2022/12/03 11:11:17;;;;;;;5.22;4.80;;;;;;;31.45;68.56;100747.69;5082986;27;69057;-38
2022/12/03 11:13:54;;;;;;;13.98;5.30;;;;;;;30.88;68.41;100663.91;5063634;27;66126;-36
2022/12/03 11:16:41;;;;;;;6.35;5.78;;;;;;;31.37;68.36;100764.25;5055049;27;70051;-39
2022/12/03 11:19:16;;;;;;;20.02;6.25;;;;;;;31.42;68.49;100772.53;5078761;27;65629;-41
2022/12/03 11:22:09;;;;;;;10.40;5.18;;;;;;;31.39;68.35;100800.91;5077400;27;69186;-40
2022/12/03 11:24:40;;;;;;;7.50;5.18;;;;;;;31.41;68.22;100811.53;5070202;28;66487;-37
2022/12/03 11:27:12;;;;;;;6.25;5.65;;;;;;;31.38;68.48;100817.41;5077480;27;69320;-37
2022/12/03 11:29:55;;;;;;;5.82;5.40;;;;;;;31.43;67.81;100841.97;5078818;27;66022;-36
2022/12/03 11:32:39;;;;;;;7.25;5.60;;;;;;;31.42;67.39;100834.88;5086436;27;70553;-38
2022/12/03 11:35:35;;;;;;;5.07;4.68;;;;;;;31.38;66.84;100828.25;5049573;27;64466;-37
2022/12/03 11:38:42;;;;;;;6.07;4.07;;;;;;;31.51;66.59;100848.97;5054934;27;69321;-40
2022/12/03 11:41:33;;;;;;;4.15;3.85;;;;;;;31.49;66.18;100851.91;5044131;27;65875;-36
2022/12/03 11:44:27;;;;;;;4.13;3.75;;;;;;;31.53;66.12;100861.25;5028116;28;68679;-37
2022/12/03 11:47:00;;;;;;;4.78;3.83;;;;;;;31.64;66.16;100885.94;5046913;28;65812;-36
2022/12/03 11:49:37;;;;;;;4.82;3.80;;;;;;;31.68;66.11;100870.88;5078618;27;70033;-40
2022/12/03 11:52:31;;;;;;;5.22;3.92;;;;;;;31.59;66.00;100884.75;5083532;27;66583;-37
2022/12/03 11:55:33;;;;;;;3.70;3.40;;;;;;;31.10;65.93;100821.41;5076650;27;71516;-40
2022/12/03 11:58:22;;;;;;;5.90;3.40;;;;;;;31.12;65.58;100824.75;5048465;27;66033;-39
2022/12/03 12:00:57;;;;;;;3.22;2.92;;;;;;;31.36;65.46;100857.47;5046726;27;70091;-40
2022/12/03 12:03:41;;;;;;;3.13;2.83;;;;;;;31.64;65.60;100932.06;5081044;27;65868;-41
2022/12/03 12:06:19;;;;;;;4.90;2.85;;;;;;;31.14;65.44;100865.97;5067515;27;69192;-37
2022/12/03 12:08:52;;;;;;;4.25;3.15;;;;;;;31.64;65.79;100940.19;5060171;27;64947;-36
2022/12/03 12:11:35;;;;;;;4.05;3.17;;;;;;;31.53;65.97;100934.44;5050802;27;70146;-41
2022/12/03 12:14:10;;;;;;;6.10;3.00;;;;;;;31.10;66.08;100853.94;5045512;27;65268;-40
2022/12/03 12:16:53;;;;;;;3.75;2.60;;;;;;;31.60;65.94;100935.22;5052848;27;69779;-38